Time;durP1;ratioP1;P1;durP2;ratioP2;P2;SDS_P1;SDS_P2;PMS_P1;PMS_P2;Temp;Humidity;BMP_temperature;BMP_pressure;BME280_temperature;BME280_humidity;BME280_pressure;Samples;Min_cycle;Max_cycle;Signal;HPM_P1;HPM_P2
2022/05/06 00:01:40;;;;;;;8.70;5.93;;;;;;;;;;5029171;28;20080;-69
2022/05/06 00:04:06;;;;;;;7.18;5.93;;;;;;;;;;5031128;28;20107;-69
2022/05/06 00:06:33;;;;;;;8.55;6.65;;;;;;;;;;5050043;28;20063;-68
2022/05/06 00:08:59;;;;;;;30.02;7.82;;;;;;;;;;5050245;28;20461;-70
2022/05/06 00:11:26;;;;;;;14.18;7.13;;;;;;;;;;5050017;28;20044;-71
2022/05/06 00:13:55;;;;;;;9.18;6.28;;;;;;;;;;5049627;28;20083;-71
2022/05/06 00:16:21;;;;;;;9.27;6.47;;;;;;;;;;5049320;28;20049;-71
2022/05/06 00:18:47;;;;;;;8.73;6.80;;;;;;;;;;5031697;28;20143;-71
2022/05/06 00:21:13;;;;;;;11.93;6.70;;;;;;;;;;5049794;28;20047;-71
2022/05/06 00:23:40;;;;;;;10.00;6.65;;;;;;;;;;5049577;28;20138;-71
2022/05/06 00:26:06;;;;;;;9.45;6.93;;;;;;;;;;5049805;28;20044;-69
2022/05/06 00:28:32;;;;;;;10.75;6.82;;;;;;;;;;5049052;28;20128;-69
2022/05/06 00:31:00;;;;;;;8.95;6.75;;;;;;;;;;5049434;28;20504;-70
2022/05/06 00:33:26;;;;;;;7.78;6.40;;;;;;;;;;5015022;28;20041;-69
2022/05/06 00:35:56;;;;;;;8.57;6.63;;;;;;;;;;5049599;28;20471;-70
2022/05/06 00:38:22;;;;;;;;;;;;;;;;;;5049946;28;20041;-69
2022/05/06 00:40:48;;;;;;;7.82;6.13;;;;;;;;;;5031039;28;19966;-69
2022/05/06 00:43:14;;;;;;;8.18;6.22;;;;;;;;;;5049060;28;20045;-69
2022/05/06 00:45:53;;;;;;;8.35;6.32;;;;;;;;;;5031193;28;20057;-69
2022/05/06 00:48:19;;;;;;;8.77;6.53;;;;;;;;;;5014898;28;20041;-68
2022/05/06 00:50:46;;;;;;;8.63;6.55;;;;;;;;;;5049158;28;20041;-69
2022/05/06 00:53:12;;;;;;;8.18;6.80;;;;;;;;;;5048930;28;20041;-70
2022/05/06 00:55:38;;;;;;;9.02;6.55;;;;;;;;;;5048745;28;20506;-71
2022/05/06 00:58:05;;;;;;;9.35;6.50;;;;;;;;;;5049299;28;20048;-70
2022/05/06 01:00:31;;;;;;;8.70;6.70;;;;;;;;;;5031387;28;20067;-70
2022/05/06 01:02:57;;;;;;;9.45;6.60;;;;;;;;;;5049116;28;20094;-71
2022/05/06 01:05:23;;;;;;;8.32;6.13;;;;;;;;;;5013996;28;20100;-70
2022/05/06 01:07:51;;;;;;;10.88;7.10;;;;;;;;;;5031255;28;20080;-67
2022/05/06 01:10:20;;;;;;;10.07;6.53;;;;;;;;;;5015085;28;20049;-69
2022/05/06 01:12:47;;;;;;;8.63;6.40;;;;;;;;;;5030690;28;20045;-69
2022/05/06 01:15:22;;;;;;;8.73;6.13;;;;;;;;;;5030753;28;20053;-70
2022/05/06 01:17:49;;;;;;;8.95;6.35;;;;;;;;;;5048887;28;20495;-70
2022/05/06 01:20:17;;;;;;;8.25;6.60;;;;;;;;;;5048893;28;20073;-70
2022/05/06 01:22:44;;;;;;;9.15;6.10;;;;;;;;;;5048629;28;20048;-71
2022/05/06 01:25:11;;;;;;;9.80;6.65;;;;;;;;;;5048177;28;20090;-70
2022/05/06 01:27:39;;;;;;;9.18;6.30;;;;;;;;;;5048712;28;20049;-68
2022/05/06 01:30:06;;;;;;;8.55;6.20;;;;;;;;;;5030598;28;20103;-69
2022/05/06 01:32:32;;;;;;;8.30;6.38;;;;;;;;;;5048546;28;20045;-69
2022/05/06 01:34:59;;;;;;;9.07;6.00;;;;;;;;;;5048105;28;20037;-69
2022/05/06 01:37:26;;;;;;;9.82;6.47;;;;;;;;;;5048354;28;20446;-69
2022/05/06 01:39:55;;;;;;;8.40;6.80;;;;;;;;;;5030447;28;20463;-68
2022/05/06 01:42:22;;;;;;;7.95;6.47;;;;;;;;;;5030767;28;20524;-67
2022/05/06 01:44:51;;;;;;;8.60;6.47;;;;;;;;;;5047928;28;20454;-71
2022/05/06 01:47:23;;;;;;;7.22;5.93;;;;;;;;;;5048431;28;20135;-70
2022/05/06 01:49:54;;;;;;;8.52;6.45;;;;;;;;;;5048468;28;20132;-70
2022/05/06 01:52:20;;;;;;;10.80;6.25;;;;;;;;;;5030669;28;20057;-70
2022/05/06 01:54:47;;;;;;;9.35;6.18;;;;;;;;;;5013605;28;20045;-70
2022/05/06 01:57:13;;;;;;;8.45;6.50;;;;;;;;;;5048322;28;20102;-70
2022/05/06 01:59:39;;;;;;;9.52;6.13;;;;;;;;;;5048206;28;20133;-71
2022/05/06 02:02:06;;;;;;;9.25;6.57;;;;;;;;;;5048885;28;20044;-71
2022/05/06 02:07:16;;;;;;;8.48;6.28;;;;;;;;;;5052178;28;20048;-68
2022/05/06 02:09:42;;;;;;;9.73;7.07;;;;;;;;;;5052118;28;20053;-67
2022/05/06 02:12:08;;;;;;;8.98;6.80;;;;;;;;;;5034906;28;20106;-68
2022/05/06 02:14:34;;;;;;;12.10;7.10;;;;;;;;;;5034055;28;20135;-68
2022/05/06 02:17:00;;;;;;;22.90;7.97;;;;;;;;;;5033753;28;20052;-68
2022/05/06 02:19:27;;;;;;;8.35;6.43;;;;;;;;;;5051712;28;20060;-68
2022/05/06 02:21:53;;;;;;;7.95;5.78;;;;;;;;;;5051929;28;20049;-68
2022/05/06 02:24:19;;;;;;;9.05;6.18;;;;;;;;;;5034244;28;20049;-68
2022/05/06 02:26:45;;;;;;;7.82;6.63;;;;;;;;;;5051895;28;20102;-67
2022/05/06 02:29:11;;;;;;;9.60;6.47;;;;;;;;;;5052604;28;20045;-68
2022/05/06 02:34:21;;;;;;;7.93;6.38;;;;;;;;;;5052120;28;20056;-67
2022/05/06 02:36:47;;;;;;;8.15;6.32;;;;;;;;;;5033281;28;20091;-68
2022/05/06 02:39:14;;;;;;;10.48;7.40;;;;;;;;;;5017396;28;20461;-68
2022/05/06 02:41:40;;;;;;;9.60;6.68;;;;;;;;;;5051878;28;20049;-68
2022/05/06 02:44:06;;;;;;;9.80;6.45;;;;;;;;;;5051803;28;20052;-69
2022/05/06 02:46:34;;;;;;;9.35;6.15;;;;;;;;;;5033594;28;20048;-69
2022/05/06 02:49:01;;;;;;;9.13;6.30;;;;;;;;;;5017275;28;20041;-69
2022/05/06 02:51:28;;;;;;;10.95;6.93;;;;;;;;;;5051283;28;20095;-69
2022/05/06 02:53:55;;;;;;;7.90;5.82;;;;;;;;;;5051517;28;20119;-69
2022/05/06 02:56:21;;;;;;;8.02;6.10;;;;;;;;;;5051332;28;20095;-69
2022/05/06 02:58:47;;;;;;;9.95;5.78;;;;;;;;;;5033261;28;20052;-69
2022/05/06 03:01:13;;;;;;;9.30;6.65;;;;;;;;;;5033145;28;20197;-69
2022/05/06 03:03:39;;;;;;;7.93;6.18;;;;;;;;;;5051475;28;20045;-69
2022/05/06 03:06:05;;;;;;;9.57;6.68;;;;;;;;;;5032914;28;20053;-69
2022/05/06 03:08:32;;;;;;;8.25;6.50;;;;;;;;;;5050902;28;20056;-68
2022/05/06 03:10:59;;;;;;;9.00;6.82;;;;;;;;;;5032843;28;20084;-68
2022/05/06 03:13:25;;;;;;;7.43;6.03;;;;;;;;;;5050531;28;20457;-69
2022/05/06 03:15:52;;;;;;;8.45;6.25;;;;;;;;;;5032654;28;20083;-68
2022/05/06 03:18:18;;;;;;;7.97;6.53;;;;;;;;;;5033186;28;20087;-69
2022/05/06 03:20:45;;;;;;;7.97;6.20;;;;;;;;;;5032281;28;20223;-69
2022/05/06 03:23:13;;;;;;;8.63;6.18;;;;;;;;;;5050840;28;20588;-69
2022/05/06 03:25:39;;;;;;;10.20;6.05;;;;;;;;;;5051036;28;20128;-69
2022/05/06 03:28:09;;;;;;;8.07;6.40;;;;;;;;;;5050340;28;20049;-69
2022/05/06 03:30:44;;;;;;;8.23;6.63;;;;;;;;;;5032586;28;20411;-69
2022/05/06 03:33:11;;;;;;;9.65;6.18;;;;;;;;;;5050790;28;20396;-69
2022/05/06 03:35:37;;;;;;;7.50;6.25;;;;;;;;;;5050905;28;20045;-69
2022/05/06 03:38:05;;;;;;;7.25;5.68;;;;;;;;;;5016288;28;20049;-69
2022/05/06 03:40:32;;;;;;;8.15;5.85;;;;;;;;;;5032413;28;20045;-68
2022/05/06 03:42:58;;;;;;;8.63;6.55;;;;;;;;;;5050404;28;20458;-68
2022/05/06 03:45:24;;;;;;;9.02;6.55;;;;;;;;;;5050600;28;20044;-68
2022/05/06 03:47:50;;;;;;;8.60;6.32;;;;;;;;;;5050445;28;20419;-68
2022/05/06 03:53:01;;;;;;;7.72;6.32;;;;;;;;;;5050494;28;20059;-68
2022/05/06 03:55:27;;;;;;;8.45;6.40;;;;;;;;;;5050237;28;20048;-68
2022/05/06 03:57:53;;;;;;;8.60;5.82;;;;;;;;;;5049646;28;20430;-69
2022/05/06 04:00:19;;;;;;;7.70;5.97;;;;;;;;;;5050237;28;20105;-68
2022/05/06 04:02:47;;;;;;;8.52;6.60;;;;;;;;;;5032296;28;20049;-68
2022/05/06 04:05:13;;;;;;;8.70;6.25;;;;;;;;;;5050299;28;20057;-68
2022/05/06 04:07:40;;;;;;;8.50;6.80;;;;;;;;;;5049986;28;20128;-69
2022/05/06 04:10:06;;;;;;;8.50;6.07;;;;;;;;;;5032047;28;20103;-69
2022/05/06 04:12:32;;;;;;;7.88;6.03;;;;;;;;;;5032470;28;20431;-68
2022/05/06 04:14:58;;;;;;;7.85;6.13;;;;;;;;;;5049759;28;20434;-70
2022/05/06 04:17:24;;;;;;;8.82;6.55;;;;;;;;;;5015633;28;20575;-68
2022/05/06 04:25:22;;;;;;;8.70;5.70;;;;;;;;;;4981934;28;20053;-68
2022/05/06 04:27:48;;;;;;;7.25;5.82;;;;;;;;;;5049839;28;20126;-69
2022/05/06 04:30:15;;;;;;;7.13;5.95;;;;;;;;;;5027614;28;20407;-68
2022/05/06 04:32:41;;;;;;;7.22;5.63;;;;;;;;;;5015155;28;20049;-68
2022/05/06 04:35:08;;;;;;;7.25;5.80;;;;;;;;;;5049395;28;20073;-69
2022/05/06 04:37:34;;;;;;;10.43;5.90;;;;;;;;;;5049838;28;20045;-66
2022/05/06 04:40:01;;;;;;;8.63;6.60;;;;;;;;;;5031524;28;20103;-68
2022/05/06 04:42:27;;;;;;;9.55;6.32;;;;;;;;;;5031762;28;20051;-68
2022/05/06 04:44:59;;;;;;;9.32;6.50;;;;;;;;;;5048178;28;20045;-68
2022/05/06 04:47:25;;;;;;;8.68;6.57;;;;;;;;;;5031453;28;20041;-68
2022/05/06 04:49:51;;;;;;;11.98;6.25;;;;;;;;;;5049086;28;20044;-68
2022/05/06 04:52:17;;;;;;;7.75;5.70;;;;;;;;;;5049352;28;20049;-68
2022/05/06 04:54:44;;;;;;;15.85;6.55;;;;;;;;;;5049060;28;20510;-68
2022/05/06 04:57:10;;;;;;;9.48;5.88;;;;;;;;;;5048895;28;20048;-67
2022/05/06 04:59:36;;;;;;;10.65;6.22;;;;;;;;;;5048982;28;20041;-68
2022/05/06 05:02:02;;;;;;;8.43;6.07;;;;;;;;;;4998765;28;20605;-68
2022/05/06 05:04:28;;;;;;;10.05;6.25;;;;;;;;;;5048981;28;20452;-68
2022/05/06 05:06:57;;;;;;;7.47;6.00;;;;;;;;;;5031147;28;20136;-68
2022/05/06 05:09:24;;;;;;;8.73;5.97;;;;;;;;;;5048489;28;20044;-68
2022/05/06 05:11:51;;;;;;;8.07;5.68;;;;;;;;;;5014521;28;20053;-68
2022/05/06 05:14:17;;;;;;;9.35;6.28;;;;;;;;;;5048685;28;20140;-68
2022/05/06 05:16:43;;;;;;;7.28;5.70;;;;;;;;;;5030738;28;20048;-68
2022/05/06 05:19:09;;;;;;;8.32;5.68;;;;;;;;;;5030679;28;20044;-69
2022/05/06 05:21:35;;;;;;;8.35;6.35;;;;;;;;;;5030531;28;20076;-69
2022/05/06 05:24:01;;;;;;;7.05;5.45;;;;;;;;;;5049269;28;20055;-68
2022/05/06 05:26:27;;;;;;;7.35;5.50;;;;;;;;;;5031079;28;20037;-69
2022/05/06 05:28:53;;;;;;;10.35;6.45;;;;;;;;;;5048718;28;20394;-68
2022/05/06 05:31:19;;;;;;;8.63;5.95;;;;;;;;;;5048893;28;20041;-67
2022/05/06 05:33:45;;;;;;;9.73;6.18;;;;;;;;;;5047971;28;20080;-68
2022/05/06 05:36:11;;;;;;;10.23;5.85;;;;;;;;;;5048385;28;20443;-69
2022/05/06 05:38:38;;;;;;;10.32;6.18;;;;;;;;;;5029747;28;20079;-69
2022/05/06 05:41:05;;;;;;;9.40;6.13;;;;;;;;;;5048669;28;20044;-67
2022/05/06 05:54:29;;;;;;;12.77;6.35;;;;;;;;;;4794621;22;20423;-73
2022/05/06 05:56:55;;;;;;;6.97;5.50;;;;;;;;;;5047578;28;20438;-72
2022/05/06 05:59:22;;;;;;;10.02;5.45;;;;;;;;;;5047850;28;20128;-72
2022/05/06 06:01:49;;;;;;;8.52;5.47;;;;;;;;;;5047655;28;20049;-73
2022/05/06 06:04:18;;;;;;;9.75;6.13;;;;;;;;;;5048307;28;20045;-73
2022/05/06 06:06:44;;;;;;;7.47;5.68;;;;;;;;;;5047994;28;20067;-73
2022/05/06 06:09:10;;;;;;;7.93;5.35;;;;;;;;;;5047894;28;20052;-72
2022/05/06 06:11:36;;;;;;;8.30;5.47;;;;;;;;;;5047845;28;20445;-73
2022/05/06 06:14:02;;;;;;;7.30;5.38;;;;;;;;;;5047376;28;20083;-72
2022/05/06 06:16:29;;;;;;;7.80;5.18;;;;;;;;;;5047815;28;20080;-74
2022/05/06 06:18:58;;;;;;;10.90;5.68;;;;;;;;;;5047489;28;20048;-73
2022/05/06 06:21:24;;;;;;;7.85;5.78;;;;;;;;;;5029887;28;20512;-72
2022/05/06 06:23:50;;;;;;;8.43;5.50;;;;;;;;;;5047364;28;20098;-74
2022/05/06 06:26:16;;;;;;;7.72;5.68;;;;;;;;;;5047209;28;20053;-73
2022/05/06 06:28:42;;;;;;;7.80;5.70;;;;;;;;;;5045842;28;20127;-72
2022/05/06 06:31:08;;;;;;;9.02;5.43;;;;;;;;;;5046322;28;20445;-71
2022/05/06 06:33:37;;;;;;;9.07;5.75;;;;;;;;;;5047086;28;20077;-72
2022/05/06 06:36:03;;;;;;;;;;;;;;;;;;5029863;28;20049;-71
2022/05/06 06:38:29;;;;;;;8.80;5.85;;;;;;;;;;5047347;28;20343;-71
2022/05/06 06:40:55;;;;;;;7.00;5.28;;;;;;;;;;5046098;28;20476;-71
2022/05/06 06:43:21;;;;;;;9.32;5.32;;;;;;;;;;5046956;28;20499;-71
2022/05/06 06:45:47;;;;;;;7.18;5.40;;;;;;;;;;5046865;28;20049;-71
2022/05/06 06:48:14;;;;;;;6.63;5.15;;;;;;;;;;5047824;28;20107;-72
2022/05/06 06:50:40;;;;;;;7.07;5.30;;;;;;;;;;5051185;28;20099;-73
2022/05/06 06:53:06;;;;;;;6.78;5.20;;;;;;;;;;5050700;28;20055;-71
2022/05/06 06:55:33;;;;;;;8.60;5.22;;;;;;;;;;5050415;28;20358;-72
2022/05/06 06:57:59;;;;;;;7.78;5.43;;;;;;;;;;5033011;28;20498;-73
2022/05/06 07:00:25;;;;;;;6.68;4.93;;;;;;;;;;5050814;28;20502;-73
2022/05/06 07:02:51;;;;;;;8.10;5.72;;;;;;;;;;5016167;28;20136;-72
2022/05/06 07:05:17;;;;;;;9.38;5.70;;;;;;;;;;5050849;28;20053;-73
2022/05/06 07:13:13;;;;;;;9.82;5.28;;;;;;;;;;5050850;28;20071;-73
2022/05/06 07:15:39;;;;;;;6.28;5.00;;;;;;;;;;5051035;28;20455;-74
2022/05/06 07:18:05;;;;;;;16.30;7.05;;;;;;;;;;5050266;28;20411;-75
2022/05/06 07:20:31;;;;;;;15.02;10.95;;;;;;;;;;5050719;28;20141;-74
2022/05/06 07:22:57;;;;;;;18.95;11.75;;;;;;;;;;5050888;28;20126;-74
2022/05/06 07:25:23;;;;;;;13.13;11.25;;;;;;;;;;5050998;28;20045;-74
2022/05/06 07:27:49;;;;;;;14.40;10.43;;;;;;;;;;5050100;28;20068;-75
2022/05/06 07:30:15;;;;;;;14.65;10.90;;;;;;;;;;5032946;28;20132;-72
2022/05/06 07:32:41;;;;;;;17.40;8.75;;;;;;;;;;5050985;28;20044;-70
2022/05/06 07:35:07;;;;;;;10.63;7.75;;;;;;;;;;5050526;28;20049;-70
2022/05/06 07:37:34;;;;;;;11.13;7.20;;;;;;;;;;5050040;28;20402;-70
2022/05/06 07:40:01;;;;;;;9.25;6.22;;;;;;;;;;5050477;28;20399;-69
2022/05/06 07:42:28;;;;;;;7.93;5.25;;;;;;;;;;5050453;28;20139;-70
2022/05/06 07:44:55;;;;;;;12.63;5.30;;;;;;;;;;5050248;28;20045;-72
2022/05/06 07:47:21;;;;;;;8.23;4.63;;;;;;;;;;5049623;28;20041;-70
2022/05/06 07:49:48;;;;;;;9.27;4.63;;;;;;;;;;5050411;28;20060;-70
2022/05/06 07:52:14;;;;;;;4.95;3.78;;;;;;;;;;5050160;28;20048;-69
2022/05/06 07:54:40;;;;;;;6.72;4.40;;;;;;;;;;5049979;28;20389;-71
2022/05/06 07:57:06;;;;;;;7.18;4.82;;;;;;;;;;5032032;28;20487;-71
2022/05/06 07:59:32;;;;;;;5.20;4.18;;;;;;;;;;5050014;28;20104;-68
2022/05/06 08:04:48;;;;;;;6.50;3.70;;;;;;;;;;5050304;28;20099;-71
2022/05/06 08:07:14;;;;;;;5.53;4.03;;;;;;;;;;5049730;28;20498;-70
2022/05/06 08:09:40;;;;;;;5.10;3.70;;;;;;;;;;5050192;28;20048;-70
2022/05/06 08:12:06;;;;;;;4.93;3.38;;;;;;;;;;5032511;28;20086;-69
2022/05/06 08:14:32;;;;;;;4.22;3.15;;;;;;;;;;5049010;28;20408;-69
2022/05/06 08:16:59;;;;;;;4.63;3.30;;;;;;;;;;5049597;28;20044;-71
2022/05/06 08:19:26;;;;;;;5.05;3.65;;;;;;;;;;5049747;28;20418;-72
2022/05/06 08:21:52;;;;;;;5.78;3.83;;;;;;;;;;5024491;28;20684;-69
2022/05/06 08:24:19;;;;;;;6.50;3.70;;;;;;;;;;5049580;28;20037;-73
2022/05/06 08:26:45;;;;;;;4.70;3.55;;;;;;;;;;5049127;28;20049;-72
2022/05/06 08:29:11;;;;;;;4.57;3.35;;;;;;;;;;5031360;28;20067;-71
2022/05/06 08:31:37;;;;;;;4.97;3.42;;;;;;;;;;5049048;28;20508;-71
2022/05/06 08:34:07;;;;;;;6.07;3.65;;;;;;;;;;5049372;28;20354;-72
2022/05/06 08:36:34;;;;;;;5.13;3.40;;;;;;;;;;5048733;28;20124;-70
2022/05/06 08:39:01;;;;;;;4.35;3.40;;;;;;;;;;5048721;28;20370;-68
2022/05/06 08:41:27;;;;;;;4.63;3.30;;;;;;;;;;5049463;28;20394;-70
2022/05/06 08:43:54;;;;;;;4.38;3.08;;;;;;;;;;5031251;28;20369;-71
2022/05/06 08:51:51;;;;;;;4.43;3.15;;;;;;;;;;5031787;28;20060;-71
2022/05/06 08:54:18;;;;;;;4.40;3.20;;;;;;;;;;5040411;28;20156;-69
2022/05/06 08:56:44;;;;;;;4.50;3.35;;;;;;;;;;5048776;28;20049;-70
2022/05/06 08:59:10;;;;;;;4.05;3.28;;;;;;;;;;5047369;28;20037;-71
2022/05/06 09:01:36;;;;;;;5.50;3.10;;;;;;;;;;5048954;28;20436;-71
2022/05/06 09:04:02;;;;;;;3.97;3.55;;;;;;;;;;5048788;28;20049;-73
2022/05/06 09:06:31;;;;;;;7.07;3.33;;;;;;;;;;5048211;28;20048;-70
2022/05/06 09:08:58;;;;;;;5.47;3.42;;;;;;;;;;5049036;28;20053;-71
2022/05/06 09:14:14;;;;;;;5.90;3.15;;;;;;;;;;5048860;28;20087;-71
2022/05/06 09:16:40;;;;;;;5.22;3.10;;;;;;;;;;5048047;28;20064;-70
2022/05/06 09:19:12;;;;;;;4.40;3.03;;;;;;;;;;5063991;28;20133;-69
2022/05/06 09:21:39;;;;;;;5.30;3.10;;;;;;;;;;5048717;28;20049;-70
2022/05/06 09:24:20;;;;;;;8.23;3.72;;;;;;;;;;5030564;28;20048;-70
2022/05/06 09:27:00;;;;;;;4.60;3.22;;;;;;;;;;5048038;28;20379;-68
2022/05/06 09:29:26;;;;;;;;;;;;;;;;;;5048946;28;20095;-68
2022/05/06 09:31:54;;;;;;;4.30;2.95;;;;;;;;;;5048375;28;19921;-68
2022/05/06 09:34:26;;;;;;;4.30;2.97;;;;;;;;;;5046813;28;20064;-69
2022/05/06 09:36:52;;;;;;;4.93;3.13;;;;;;;;;;5047963;28;20137;-69
2022/05/06 09:39:21;;;;;;;5.43;3.10;;;;;;;;;;5048104;28;20128;-69
2022/05/06 09:41:48;;;;;;;3.93;2.90;;;;;;;;;;5048334;28;20064;-69
2022/05/06 09:44:14;;;;;;;4.95;3.17;;;;;;;;;;5032990;28;20056;-69
2022/05/06 09:46:40;;;;;;;6.85;3.30;;;;;;;;;;5027843;28;20037;-69
2022/05/06 09:49:06;;;;;;;4.90;3.30;;;;;;;;;;5028492;28;20156;-69
2022/05/06 09:51:33;;;;;;;5.30;3.17;;;;;;;;;;5028457;28;20147;-68
2022/05/06 09:54:00;;;;;;;7.43;3.17;;;;;;;;;;5028215;28;20091;-70
2022/05/06 09:56:27;;;;;;;6.38;3.88;;;;;;;;;;5028405;28;20111;-70
2022/05/06 09:58:53;;;;;;;4.15;2.83;;;;;;;;;;5027789;28;20107;-72
2022/05/06 10:01:20;;;;;;;4.35;2.85;;;;;;;;;;5028602;28;20042;-70
2022/05/06 10:03:46;;;;;;;4.57;2.80;;;;;;;;;;5028276;28;20046;-71
2022/05/06 10:06:12;;;;;;;4.75;3.40;;;;;;;;;;5028357;28;20037;-70
2022/05/06 10:08:42;;;;;;;6.38;2.80;;;;;;;;;;5028232;28;20049;-69
2022/05/06 10:11:12;;;;;;;5.65;3.17;;;;;;;;;;5027734;28;20111;-69
2022/05/06 10:13:43;;;;;;;4.60;3.10;;;;;;;;;;5027933;28;20048;-69
2022/05/06 10:16:09;;;;;;;10.93;3.70;;;;;;;;;;5028034;28;20041;-70
2022/05/06 10:18:35;;;;;;;9.52;3.60;;;;;;;;;;5010355;28;20045;-69
2022/05/06 10:21:02;;;;;;;5.50;3.25;;;;;;;;;;5031807;28;20049;-71
2022/05/06 10:23:47;;;;;;;4.95;3.22;;;;;;;;;;5011477;28;20068;-69
2022/05/06 10:26:32;;;;;;;5.07;3.03;;;;;;;;;;5031497;28;20474;-69
2022/05/06 10:34:29;;;;;;;5.68;3.13;;;;;;;;;;5031714;28;20053;-71
2022/05/06 10:36:56;;;;;;;5.63;3.15;;;;;;;;;;5032245;28;20098;-69
2022/05/06 10:39:23;;;;;;;6.30;3.25;;;;;;;;;;5020121;28;20052;-69
2022/05/06 10:42:05;;;;;;;7.22;3.10;;;;;;;;;;5052390;28;20071;-71
2022/05/06 10:44:37;;;;;;;5.85;3.22;;;;;;;;;;5052010;28;20344;-70
2022/05/06 10:47:04;;;;;;;6.75;3.28;;;;;;;;;;5051656;28;20095;-70
2022/05/06 10:49:39;;;;;;;5.40;2.97;;;;;;;;;;5052097;28;20048;-71
2022/05/06 10:52:15;;;;;;;4.97;3.20;;;;;;;;;;5052048;28;20382;-70
2022/05/06 10:54:41;;;;;;;5.07;2.60;;;;;;;;;;5051206;28;20171;-70
2022/05/06 10:57:07;;;;;;;4.55;3.00;;;;;;;;;;5051988;28;20045;-70
2022/05/06 10:59:49;;;;;;;5.82;2.85;;;;;;;;;;5033385;28;20041;-72
2022/05/06 11:02:18;;;;;;;7.47;2.78;;;;;;;;;;5052032;28;20056;-71
2022/05/06 11:04:58;;;;;;;5.65;2.85;;;;;;;;;;5051556;28;20387;-71
2022/05/06 11:07:24;;;;;;;8.48;3.10;;;;;;;;;;5051801;28;20045;-72
2022/05/06 11:09:53;;;;;;;4.63;2.92;;;;;;;;;;5051631;28;20045;-71
2022/05/06 11:12:33;;;;;;;5.00;2.67;;;;;;;;;;5051069;28;20045;-69
2022/05/06 11:14:59;;;;;;;4.22;2.55;;;;;;;;;;5051270;28;20075;-71
2022/05/06 11:17:25;;;;;;;7.43;2.72;;;;;;;;;;5051678;28;20063;-71
2022/05/06 11:19:51;;;;;;;3.67;2.60;;;;;;;;;;5051413;28;20056;-71
2022/05/06 11:22:17;;;;;;;5.40;2.33;;;;;;;;;;5051553;28;20048;-69
2022/05/06 11:24:44;;;;;;;4.65;2.50;;;;;;;;;;5051231;28;20186;-72
2022/05/06 11:27:20;;;;;;;6.97;2.45;;;;;;;;;;5050981;28;20047;-71
2022/05/06 11:29:59;;;;;;;4.88;2.63;;;;;;;;;;5051158;28;20049;-70
2022/05/06 11:32:28;;;;;;;4.10;2.63;;;;;;;;;;5031390;28;20045;-70
2022/05/06 11:34:54;;;;;;;;;;;;;;;;;;5030873;28;20119;-71
2022/05/06 11:37:21;;;;;;;5.00;2.80;;;;;;;;;;5033105;28;20384;-69
2022/05/06 11:39:48;;;;;;;4.63;2.40;;;;;;;;;;5030963;28;20053;-71
2022/05/06 11:42:24;;;;;;;7.93;3.38;;;;;;;;;;5030364;28;20560;-72
2022/05/06 11:47:44;;;;;;;11.30;2.80;;;;;;;;;;5032734;28;20053;-72
2022/05/06 11:50:11;;;;;;;7.60;2.67;;;;;;;;;;5032041;28;20076;-73
2022/05/06 11:52:38;;;;;;;5.63;2.45;;;;;;;;;;5014235;28;20084;-74
2022/05/06 11:55:05;;;;;;;6.97;2.45;;;;;;;;;;5030727;28;20107;-73
2022/05/06 11:57:31;;;;;;;4.15;2.30;;;;;;;;;;5030904;28;20060;-73
2022/05/06 11:59:57;;;;;;;6.53;2.10;;;;;;;;;;5030547;28;20069;-73
2022/05/06 12:02:23;;;;;;;3.92;2.35;;;;;;;;;;5030192;28;20427;-73
2022/05/06 12:04:49;;;;;;;4.78;2.40;;;;;;;;;;5030853;28;20056;-74
2022/05/06 12:07:15;;;;;;;6.28;2.85;;;;;;;;;;5031022;28;20406;-73
2022/05/06 12:09:45;;;;;;;6.57;2.60;;;;;;;;;;5030339;28;20049;-74
2022/05/06 12:12:11;;;;;;;5.30;2.45;;;;;;;;;;5012654;28;20056;-73
2022/05/06 12:14:38;;;;;;;9.05;2.75;;;;;;;;;;5030517;28;20487;-73
2022/05/06 12:17:14;;;;;;;5.60;2.35;;;;;;;;;;5012724;28;20046;-73
2022/05/06 12:19:41;;;;;;;5.30;2.67;;;;;;;;;;5030115;28;20136;-74
2022/05/06 12:22:08;;;;;;;5.40;2.50;;;;;;;;;;5012472;28;20037;-75
2022/05/06 12:24:50;;;;;;;5.22;2.15;;;;;;;;;;5012595;28;20060;-74
2022/05/06 12:27:23;;;;;;;5.85;2.70;;;;;;;;;;5029661;28;20042;-74
2022/05/06 12:29:49;;;;;;;4.85;2.08;;;;;;;;;;5030281;28;20042;-75
2022/05/06 12:32:15;;;;;;;5.40;2.42;;;;;;;;;;5030400;28;20128;-75
2022/05/06 12:34:41;;;;;;;5.38;2.40;;;;;;;;;;5029491;28;20124;-74
2022/05/06 12:37:09;;;;;;;3.13;2.15;;;;;;;;;;5030304;28;20045;-74
2022/05/06 12:39:39;;;;;;;6.03;2.30;;;;;;;;;;5029992;28;20059;-74
2022/05/06 12:42:15;;;;;;;3.10;2.30;;;;;;;;;;5029623;28;20061;-74
2022/05/06 12:44:42;;;;;;;4.25;1.75;;;;;;;;;;5029503;28;20045;-75
2022/05/06 12:50:03;;;;;;;5.00;2.05;;;;;;;;;;5029363;28;20056;-74
2022/05/06 12:52:31;;;;;;;4.07;2.20;;;;;;;;;;5012326;28;20399;-74
2022/05/06 12:54:57;;;;;;;4.35;2.40;;;;;;;;;;5029016;28;20073;-74
2022/05/06 12:57:26;;;;;;;4.15;2.13;;;;;;;;;;5029559;28;20128;-75
2022/05/06 12:59:52;;;;;;;5.28;2.00;;;;;;;;;;5029428;28;20099;-68
2022/05/06 13:02:18;;;;;;;9.80;1.85;;;;;;;;;;5031531;28;20064;-70
2022/05/06 13:04:44;;;;;;;4.85;1.55;;;;;;;;;;5048679;28;20049;-70
2022/05/06 13:07:10;;;;;;;4.18;1.98;;;;;;;;;;5040047;28;20449;-70
2022/05/06 13:09:36;;;;;;;4.13;2.20;;;;;;;;;;5047987;28;20110;-72
2022/05/06 13:12:03;;;;;;;4.47;2.22;;;;;;;;;;5047680;28;20049;-70
2022/05/06 13:14:29;;;;;;;3.35;1.70;;;;;;;;;;5042361;28;20089;-72
2022/05/06 13:16:55;;;;;;;3.22;1.63;;;;;;;;;;5035967;28;20044;-70
2022/05/06 13:19:21;;;;;;;7.40;2.05;;;;;;;;;;5033540;28;20463;-70
2022/05/06 13:21:47;;;;;;;3.22;2.00;;;;;;;;;;5035391;28;20064;-70
2022/05/06 13:24:13;;;;;;;3.45;2.10;;;;;;;;;;5048666;28;20413;-71
2022/05/06 13:26:39;;;;;;;3.70;1.98;;;;;;;;;;5049312;28;20472;-70
2022/05/06 13:29:06;;;;;;;3.03;1.80;;;;;;;;;;5048663;28;20497;-69
2022/05/06 13:31:33;;;;;;;4.80;1.90;;;;;;;;;;5048781;28;20044;-70
2022/05/06 13:33:59;;;;;;;3.22;2.00;;;;;;;;;;5042792;28;20052;-68
2022/05/06 13:36:25;;;;;;;3.13;1.75;;;;;;;;;;5040102;28;20045;-68
2022/05/06 13:38:51;;;;;;;3.35;1.92;;;;;;;;;;5048445;28;20485;-68
2022/05/06 13:41:17;;;;;;;2.95;1.70;;;;;;;;;;5044332;28;20080;-69
2022/05/06 13:43:43;;;;;;;3.88;2.00;;;;;;;;;;5021853;28;20493;-68
2022/05/06 13:46:11;;;;;;;2.28;1.40;;;;;;;;;;5048333;28;20202;-68
2022/05/06 13:48:37;;;;;;;2.30;1.40;;;;;;;;;;5061714;28;20512;-71
2022/05/06 13:51:04;;;;;;;2.58;1.70;;;;;;;;;;5048491;28;20049;-68
2022/05/06 13:53:30;;;;;;;2.72;1.67;;;;;;;;;;5048239;28;20037;-69
2022/05/06 14:01:25;;;;;;;2.30;1.40;;;;;;;;;;5052257;28;20171;-68
2022/05/06 14:03:51;;;;;;;2.92;1.55;;;;;;;;;;5052648;28;20565;-70
2022/05/06 14:06:17;;;;;;;3.47;1.95;;;;;;;;;;5051623;28;20033;-71
2022/05/06 14:08:44;;;;;;;1.95;1.40;;;;;;;;;;5052113;28;20072;-71
2022/05/06 14:11:10;;;;;;;3.30;1.33;;;;;;;;;;5051444;28;20506;-71
2022/05/06 14:13:36;;;;;;;5.68;1.60;;;;;;;;;;5052050;28;20148;-70
2022/05/06 14:16:02;;;;;;;3.15;1.63;;;;;;;;;;5052036;28;20064;-72
2022/05/06 14:18:28;;;;;;;3.10;1.65;;;;;;;;;;5034171;28;20049;-71
2022/05/06 14:20:54;;;;;;;3.60;1.60;;;;;;;;;;5051669;28;20048;-71
2022/05/06 14:23:24;;;;;;;3.55;1.70;;;;;;;;;;5052487;28;20041;-70
2022/05/06 14:25:51;;;;;;;2.35;1.48;;;;;;;;;;5052762;28;20060;-71
2022/05/06 14:28:17;;;;;;;2.63;1.60;;;;;;;;;;5052972;28;20071;-72
2022/05/06 14:30:43;;;;;;;2.38;1.50;;;;;;;;;;5052728;28;20045;-72
2022/05/06 14:33:09;;;;;;;3.40;1.63;;;;;;;;;;5052694;28;20053;-71
2022/05/06 14:35:37;;;;;;;2.63;1.60;;;;;;;;;;5052597;28;20056;-70
2022/05/06 14:38:03;;;;;;;2.92;1.50;;;;;;;;;;5035070;28;20052;-72
2022/05/06 14:40:29;;;;;;;2.17;1.40;;;;;;;;;;5034810;28;20060;-71
2022/05/06 14:42:56;;;;;;;2.40;1.65;;;;;;;;;;5052297;28;20105;-72
2022/05/06 14:45:23;;;;;;;2.92;1.80;;;;;;;;;;5051743;28;20045;-72
2022/05/06 14:47:53;;;;;;;3.17;1.98;;;;;;;;;;5051740;28;20162;-72
2022/05/06 14:50:19;;;;;;;3.20;1.90;;;;;;;;;;5033176;28;20052;-70
2022/05/06 14:52:45;;;;;;;2.95;1.60;;;;;;;;;;5052467;28;20053;-70
2022/05/06 14:55:11;;;;;;;3.78;1.92;;;;;;;;;;5052066;28;20127;-70
2022/05/06 14:57:38;;;;;;;3.38;1.80;;;;;;;;;;5052269;28;20049;-70
2022/05/06 15:00:08;;;;;;;5.15;1.98;;;;;;;;;;5033960;28;20060;-72
2022/05/06 15:02:34;;;;;;;5.75;2.03;;;;;;;;;;5035173;28;20049;-71
2022/05/06 15:05:00;;;;;;;3.83;1.95;;;;;;;;;;5052613;28;20868;-71
2022/05/06 15:07:26;;;;;;;5.68;2.70;;;;;;;;;;5034862;28;20103;-71
2022/05/06 15:09:52;;;;;;;18.40;3.05;;;;;;;;;;5051296;28;20047;-70
2022/05/06 15:12:19;;;;;;;11.23;2.72;;;;;;;;;;5051912;28;20131;-70
2022/05/06 15:14:45;;;;;;;4.15;2.05;;;;;;;;;;5034236;28;20054;-69
2022/05/06 15:17:15;;;;;;;21.10;3.97;;;;;;;;;;5051538;28;20127;-72
2022/05/06 15:19:42;;;;;;;11.52;3.33;;;;;;;;;;5051081;28;20091;-70
2022/05/06 15:22:08;;;;;;;8.82;2.17;;;;;;;;;;5051376;28;20045;-70
2022/05/06 15:24:35;;;;;;;4.43;2.00;;;;;;;;;;5033696;28;20441;-70
2022/05/06 15:27:01;;;;;;;7.32;2.70;;;;;;;;;;5051462;28;20041;-70
2022/05/06 15:29:29;;;;;;;10.07;2.75;;;;;;;;;;5032997;28;20115;-70
2022/05/06 15:31:55;;;;;;;10.82;2.30;;;;;;;;;;5033403;28;20087;-70
2022/05/06 15:34:21;;;;;;;8.15;2.30;;;;;;;;;;5051268;28;20072;-71
2022/05/06 15:36:47;;;;;;;9.40;2.40;;;;;;;;;;5016220;28;20045;-71
2022/05/06 15:39:13;;;;;;;7.38;2.40;;;;;;;;;;5051181;28;20102;-73
2022/05/06 15:41:40;;;;;;;5.10;2.28;;;;;;;;;;5051075;28;20083;-72